createdAt,value
2023-02-07T00:00:44.938Z,14.20
2023-02-07T00:03:13.794Z,9.87
2023-02-07T00:05:42.527Z,8.73
2023-02-07T00:08:11.424Z,9.63
2023-02-07T00:10:40.092Z,6.57
2023-02-07T00:13:10.223Z,11.33
2023-02-07T00:15:39.087Z,10.40
2023-02-07T00:18:08.001Z,7.83
2023-02-07T00:20:36.653Z,9.30
2023-02-07T00:23:05.230Z,6.50
2023-02-07T00:25:33.776Z,11.80
2023-02-07T00:28:02.397Z,11.43
2023-02-07T00:30:32.749Z,9.75
2023-02-07T00:33:01.490Z,6.93
2023-02-07T00:35:30.133Z,13.50
2023-02-07T00:37:58.828Z,9.33
2023-02-07T00:40:27.642Z,13.87
2023-02-07T00:42:56.326Z,9.73
2023-02-07T00:45:24.964Z,9.48
2023-02-07T00:47:55.010Z,13.23
2023-02-07T00:50:23.668Z,13.40
2023-02-07T00:52:52.596Z,12.00
2023-02-07T00:55:21.136Z,11.20
2023-02-07T00:57:49.755Z,10.02
2023-02-07T01:00:18.700Z,7.80
2023-02-07T01:02:48.714Z,9.40
2023-02-07T01:05:18.908Z,8.85
2023-02-07T01:07:47.464Z,4.93
2023-02-07T01:10:16.300Z,7.60
2023-02-07T01:12:44.866Z,7.40
2023-02-07T01:15:13.462Z,6.18
2023-02-07T01:17:42.017Z,6.50
2023-02-07T01:20:12.023Z,5.97
2023-02-07T01:22:42.332Z,6.27
2023-02-07T01:25:11.662Z,8.50
2023-02-07T01:27:40.778Z,7.90
2023-02-07T01:30:10.313Z,9.87
2023-02-07T01:32:38.833Z,11.40
2023-02-07T01:35:08.131Z,9.07
2023-02-07T01:37:36.878Z,7.60
2023-02-07T01:40:07.846Z,10.93
2023-02-07T01:42:36.427Z,5.47
2023-02-07T01:45:14.425Z,9.33
2023-02-07T01:47:43.189Z,8.90
2023-02-07T01:50:11.815Z,8.17
2023-02-07T01:52:42.570Z,12.33
2023-02-07T02:32:58.419Z,7.77
2023-02-07T02:35:34.761Z,8.00
2023-02-07T02:38:14.103Z,5.67
2023-02-07T02:40:48.698Z,5.97
2023-02-07T02:43:23.803Z,8.43
2023-02-07T02:45:57.457Z,5.13
2023-02-07T02:48:29.368Z,7.30
2023-02-07T02:50:58.965Z,5.37
2023-02-07T02:53:27.644Z,5.87
2023-02-07T02:56:22.535Z,9.30
2023-02-07T02:59:39.165Z,5.13
2023-02-07T03:02:21.664Z,6.80
2023-02-07T03:05:06.263Z,7.37
2023-02-07T03:07:48.817Z,7.30
2023-02-07T03:10:26.788Z,7.18
2023-02-07T03:13:03.407Z,5.57
2023-02-07T03:15:41.437Z,9.20
2023-02-07T03:18:16.730Z,7.30
2023-02-07T03:20:49.364Z,9.87
2023-02-07T03:23:20.744Z,8.50
2023-02-07T03:25:51.261Z,6.70
2023-02-07T03:28:24.095Z,8.30
2023-02-07T03:30:54.090Z,8.70
2023-02-07T03:33:25.044Z,9.07
2023-02-07T03:36:03.341Z,5.10
2023-02-07T03:38:32.159Z,5.40
2023-02-07T03:41:06.301Z,4.83
2023-02-07T03:43:37.929Z,7.10
2023-02-07T03:46:08.801Z,4.53
2023-02-07T03:48:37.482Z,5.47
2023-02-07T03:51:07.881Z,6.07
2023-02-07T03:53:36.619Z,7.23
2023-02-07T03:56:05.730Z,6.33
2023-02-07T03:58:34.460Z,8.00
2023-02-07T04:01:03.168Z,4.17
2023-02-07T04:03:31.973Z,8.13
2023-02-07T04:06:00.866Z,6.00
2023-02-07T04:08:30.766Z,6.03
2023-02-07T04:11:00.161Z,8.77
2023-02-07T04:13:29.361Z,6.17
2023-02-07T04:15:58.429Z,7.20
2023-02-07T04:18:27.145Z,6.23
2023-02-07T04:21:02.317Z,9.13
2023-02-07T04:23:33.121Z,5.03
2023-02-07T04:26:01.757Z,8.48
2023-02-07T04:28:30.912Z,5.77
2023-02-07T04:30:59.513Z,4.27
2023-02-07T04:33:30.201Z,6.77
2023-02-07T04:35:59.918Z,6.67
2023-02-07T04:38:29.338Z,6.90
2023-02-07T04:41:03.425Z,6.47
2023-02-07T04:43:32.145Z,7.60
2023-02-07T04:46:01.001Z,7.43
2023-02-07T04:48:29.792Z,11.40
2023-02-07T04:50:58.540Z,9.00
2023-02-07T04:53:27.221Z,6.10
2023-02-07T04:55:55.998Z,8.77
2023-02-07T04:58:26.409Z,8.97
2023-02-07T05:00:55.786Z,6.50
2023-02-07T05:03:24.478Z,6.60
2023-02-07T05:05:55.143Z,5.50
2023-02-07T05:40:06.961Z,6.50
2023-02-07T05:42:35.591Z,5.97
2023-02-07T05:45:04.175Z,5.83
2023-02-07T05:47:33.171Z,6.07
2023-02-07T05:50:01.892Z,9.53
2023-02-07T05:52:33.529Z,5.90
2023-02-07T05:55:05.726Z,10.60
2023-02-07T05:57:34.423Z,5.23
2023-02-07T06:00:03.248Z,9.13
2023-02-07T06:02:40.904Z,9.93
2023-02-07T06:05:11.950Z,7.40
2023-02-07T06:07:41.140Z,5.90
2023-02-07T06:10:14.992Z,6.53
2023-02-07T06:12:43.673Z,8.90
2023-02-07T06:15:12.377Z,6.23
2023-02-07T06:17:41.117Z,6.20
2023-02-07T06:20:10.861Z,4.87
2023-02-07T06:22:39.467Z,9.53
2023-02-07T06:25:11.923Z,6.53
2023-02-07T06:27:42.938Z,5.60
2023-02-07T06:30:13.062Z,5.27
2023-02-07T06:32:42.200Z,11.50
2023-02-07T06:35:11.187Z,5.57
2023-02-07T06:37:39.790Z,5.83
2023-02-07T06:40:09.532Z,7.60
2023-02-07T06:42:38.103Z,7.03
2023-02-07T06:45:08.911Z,4.47
2023-02-07T06:47:37.536Z,5.45
2023-02-07T06:50:09.040Z,11.77
2023-02-07T06:52:37.876Z,5.17
2023-02-07T06:55:06.816Z,8.00
2023-02-07T06:57:35.357Z,5.95
2023-02-07T07:00:04.848Z,9.60
2023-02-07T07:02:35.117Z,6.37
2023-02-07T07:05:03.913Z,7.17
2023-02-07T07:07:32.444Z,4.47
2023-02-07T07:10:00.993Z,4.50
2023-02-07T07:12:29.971Z,5.87
2023-02-07T07:14:58.598Z,7.53
2023-02-07T07:17:27.393Z,7.63
2023-02-07T07:19:57.380Z,8.90
2023-02-07T07:22:25.958Z,6.37
2023-02-07T07:24:54.470Z,8.53
2023-02-07T07:27:22.987Z,8.17
2023-02-07T07:29:51.614Z,7.63
2023-02-07T07:32:33.208Z,5.63
2023-02-07T07:35:03.443Z,6.77
2023-02-07T07:37:32.757Z,6.63
2023-02-07T07:40:01.717Z,7.03
2023-02-07T07:42:32.631Z,8.60
2023-02-07T07:45:15.908Z,7.13
2023-02-07T07:47:44.465Z,6.20
2023-02-07T07:50:16.096Z,4.20
2023-02-07T07:52:44.686Z,6.60
2023-02-07T07:55:13.276Z,8.03
2023-02-07T07:57:41.830Z,8.23
2023-02-07T08:00:11.647Z,8.50
2023-02-07T08:02:43.738Z,9.33
2023-02-07T08:05:14.020Z,7.87
2023-02-07T08:07:42.780Z,8.93
2023-02-07T08:10:11.611Z,11.27
2023-02-07T08:12:43.272Z,8.50
2023-02-07T08:15:14.099Z,12.00
2023-02-07T08:17:42.815Z,5.03
2023-02-07T08:20:13.832Z,9.47
2023-02-07T08:22:42.466Z,7.33
2023-02-07T08:25:11.590Z,5.00
2023-02-07T08:27:41.646Z,5.63
2023-02-07T08:30:12.822Z,8.77
2023-02-07T08:32:41.776Z,5.40
2023-02-07T08:35:11.021Z,7.13
2023-02-07T08:37:42.276Z,6.63
2023-02-07T08:40:11.628Z,9.77
2023-02-07T08:42:41.694Z,7.90
2023-02-07T08:45:11.313Z,9.93
2023-02-07T08:47:40.284Z,10.97
2023-02-07T08:50:10.188Z,6.37
2023-02-07T08:52:39.182Z,7.57
2023-02-07T08:55:10.048Z,7.63
2023-02-07T09:10:12.783Z,9.57
2023-02-07T09:12:41.418Z,5.57
2023-02-07T09:15:10.901Z,4.80
2023-02-07T09:17:39.488Z,4.90
2023-02-07T09:20:08.872Z,7.17
2023-02-07T09:22:57.525Z,8.27
2023-02-07T09:25:27.595Z,6.20
2023-02-07T09:27:56.619Z,9.77
2023-02-07T09:30:25.538Z,7.32
2023-02-07T09:32:54.273Z,9.43
2023-02-07T09:35:23.143Z,8.30
2023-02-07T09:37:54.414Z,9.40
2023-02-07T09:40:23.834Z,5.72
2023-02-07T09:42:58.056Z,7.13
2023-02-07T09:45:30.894Z,3.50
2023-02-07T09:48:05.548Z,8.20
2023-02-07T09:50:39.604Z,5.87
2023-02-07T09:53:16.601Z,4.60
2023-02-07T09:55:50.177Z,4.83
2023-02-07T09:58:30.417Z,7.63
2023-02-07T10:01:04.518Z,6.83
2023-02-07T10:03:37.581Z,6.10
2023-02-07T10:06:18.464Z,5.30
2023-02-07T10:08:51.068Z,6.53
2023-02-07T10:11:28.820Z,7.63
2023-02-07T10:14:18.249Z,5.68
2023-02-07T10:17:04.721Z,7.50
2023-02-07T10:19:45.336Z,5.72
2023-02-07T10:22:22.406Z,5.82
2023-02-07T10:25:13.067Z,6.77
2023-02-07T10:27:51.488Z,7.63
2023-02-07T10:30:25.600Z,6.05
2023-02-07T10:32:55.314Z,3.83
2023-02-07T10:35:29.938Z,6.38
2023-02-07T10:38:02.106Z,5.00
2023-02-07T10:40:35.966Z,5.67
2023-02-07T10:43:07.693Z,6.55
2023-02-07T10:45:38.850Z,5.25
2023-02-07T10:48:14.572Z,7.90
2023-02-07T10:50:43.812Z,7.95
2023-02-07T10:53:12.669Z,7.07
2023-02-07T10:55:45.005Z,7.80
2023-02-07T10:58:23.354Z,7.05
2023-02-07T11:00:57.170Z,5.37
2023-02-07T11:03:26.978Z,6.57
2023-02-07T11:05:58.877Z,7.00
2023-02-07T11:08:29.186Z,5.97
2023-02-07T11:11:00.450Z,5.68
2023-02-07T11:13:31.169Z,8.10
2023-02-07T11:16:06.244Z,6.47
2023-02-07T11:18:38.803Z,5.82
2023-02-07T11:21:20.236Z,6.07
2023-02-07T11:23:50.006Z,5.18
2023-02-07T11:26:20.196Z,6.50
2023-02-07T11:28:52.334Z,5.70
2023-02-07T11:31:31.288Z,7.53
2023-02-07T11:34:11.364Z,5.00
2023-02-07T11:36:39.974Z,6.00
2023-02-07T11:39:18.044Z,5.75
2023-02-07T11:41:59.495Z,6.70
2023-02-07T11:44:30.791Z,5.82
2023-02-07T11:47:06.002Z,6.28
2023-02-07T11:49:43.189Z,5.68
2023-02-07T11:52:12.444Z,4.38
2023-02-07T11:54:42.668Z,7.60
2023-02-07T11:57:14.367Z,6.13
2023-02-07T11:59:48.791Z,5.03
2023-02-07T12:02:23.509Z,5.53
2023-02-07T12:04:54.909Z,5.57
2023-02-07T12:07:28.041Z,3.85
2023-02-07T12:09:58.633Z,5.83
2023-02-07T12:12:35.616Z,4.83
2023-02-07T12:15:10.577Z,5.75
2023-02-07T12:17:48.564Z,5.57
2023-02-07T12:20:24.960Z,4.77
2023-02-07T12:23:14.211Z,5.95
2023-02-07T12:25:55.582Z,4.43
2023-02-07T12:31:31.147Z,4.27
2023-02-07T12:34:06.813Z,4.22
2023-02-07T12:36:39.272Z,4.70
2023-02-07T12:39:16.338Z,8.70
2023-02-07T12:41:50.521Z,5.87
2023-02-07T12:44:25.674Z,7.10
2023-02-07T12:47:02.395Z,5.13
2023-02-07T12:49:54.416Z,6.15
2023-02-07T12:52:34.699Z,6.57
2023-02-07T12:55:16.528Z,4.35
2023-02-07T12:58:01.733Z,3.80
2023-02-07T13:00:35.391Z,5.95
2023-02-07T13:03:20.828Z,4.80
2023-02-07T13:06:02.636Z,6.20
2023-02-07T13:08:41.762Z,6.00
2023-02-07T13:11:22.625Z,7.87
2023-02-07T13:14:00.842Z,5.50
2023-02-07T13:16:39.366Z,5.47
2023-02-07T13:19:17.721Z,6.38
2023-02-07T13:21:53.511Z,5.47
2023-02-07T13:24:25.008Z,7.32
2023-02-07T13:26:57.900Z,3.22
2023-02-07T13:29:28.714Z,5.18
2023-02-07T13:32:01.227Z,6.05
2023-02-07T13:34:33.403Z,7.28
2023-02-07T13:37:16.081Z,4.95
2023-02-07T13:39:56.963Z,5.90
2023-02-07T13:42:33.579Z,4.70
2023-02-07T13:45:08.043Z,5.97
2023-02-07T13:47:44.090Z,7.07
2023-02-07T13:50:22.914Z,7.40
2023-02-07T13:52:59.454Z,7.00
2023-02-07T13:55:33.699Z,3.60
2023-02-07T13:58:19.745Z,3.78
2023-02-07T14:01:10.329Z,3.42
2023-02-07T14:03:38.999Z,4.03
2023-02-07T14:06:22.428Z,5.65
2023-02-07T14:09:03.256Z,4.68
2023-02-07T14:11:37.991Z,6.18
2023-02-07T14:14:14.426Z,3.25
2023-02-07T14:16:52.148Z,3.75
2023-02-07T14:19:53.038Z,4.53
2023-02-07T14:22:24.816Z,3.80
2023-02-07T14:25:21.149Z,4.20
2023-02-07T14:28:08.821Z,4.63
2023-02-07T14:30:39.015Z,3.10
2023-02-07T14:33:14.247Z,6.35
2023-02-07T14:36:07.222Z,3.60
2023-02-07T14:38:39.850Z,2.67
2023-02-07T14:41:12.852Z,4.30
2023-02-07T14:44:07.161Z,6.50
2023-02-07T14:46:40.691Z,4.00
2023-02-07T14:49:16.906Z,3.97
2023-02-07T14:51:48.460Z,5.15
2023-02-07T14:54:27.509Z,6.10
2023-02-07T14:57:04.208Z,3.72
2023-02-07T14:59:37.211Z,5.30
2023-02-07T15:02:30.095Z,5.93
2023-02-07T15:04:58.971Z,5.10
2023-02-07T15:07:27.626Z,3.33
2023-02-07T15:09:56.265Z,5.97
2023-02-07T15:12:28.862Z,6.10
2023-02-07T15:14:58.303Z,3.95
2023-02-07T15:17:42.638Z,5.45
2023-02-07T15:20:17.263Z,2.27
2023-02-07T15:22:50.176Z,5.43
2023-02-07T15:25:19.538Z,5.03
2023-02-07T15:28:02.588Z,3.03
2023-02-07T15:30:32.361Z,5.63
2023-02-07T15:33:01.362Z,3.63
2023-02-07T15:35:40.490Z,5.50
2023-02-07T15:38:18.544Z,3.65
2023-02-07T15:40:47.224Z,4.67
2023-02-07T15:43:32.731Z,4.72
2023-02-07T15:46:08.460Z,5.43
2023-02-07T15:48:49.623Z,5.50
2023-02-07T15:51:20.363Z,5.47
2023-02-07T15:54:17.062Z,6.43
2023-02-07T15:56:49.126Z,4.53
2023-02-07T15:59:26.381Z,6.13
2023-02-07T16:02:49.031Z,4.17
2023-02-07T16:05:11.969Z,6.00
2023-02-07T16:07:41.384Z,5.07
2023-02-07T16:10:45.927Z,4.70
2023-02-07T16:13:20.679Z,3.50
2023-02-07T16:15:58.581Z,5.22
2023-02-07T16:18:41.403Z,4.10
2023-02-07T16:21:14.875Z,4.27
2023-02-07T16:23:43.916Z,3.97
2023-02-07T16:26:12.703Z,3.43
2023-02-07T16:28:41.310Z,5.87
2023-02-07T16:31:11.382Z,3.83
2023-02-07T16:33:40.166Z,4.37
2023-02-07T16:36:14.560Z,6.30
2023-02-07T16:38:43.166Z,4.63
2023-02-07T16:41:26.060Z,5.93
2023-02-07T16:43:56.465Z,4.57
2023-02-07T16:46:26.685Z,2.80
2023-02-07T16:48:55.471Z,4.60
2023-02-07T16:51:24.284Z,4.53
2023-02-07T16:53:52.976Z,5.50
2023-02-07T16:56:33.426Z,3.70
2023-02-07T16:59:01.985Z,3.00
2023-02-07T17:01:33.423Z,3.53
2023-02-07T17:04:01.980Z,3.78
2023-02-07T17:06:32.181Z,2.38
2023-02-07T17:09:01.978Z,4.67
2023-02-07T17:11:30.819Z,4.90
2023-02-07T17:14:00.263Z,3.90
2023-02-07T17:16:29.493Z,3.23
2023-02-07T17:19:01.016Z,5.30
2023-02-07T17:21:29.822Z,4.90
2023-02-07T17:23:58.466Z,2.63
2023-02-07T17:26:31.316Z,2.50
2023-02-07T17:29:00.286Z,3.40
2023-02-07T17:31:29.036Z,2.70
2023-02-07T17:33:59.175Z,2.60
2023-02-07T17:36:29.009Z,3.60
2023-02-07T17:39:00.852Z,3.03
2023-02-07T17:41:30.615Z,2.85
2023-02-07T17:43:59.309Z,4.47
2023-02-07T17:46:28.882Z,2.50
2023-02-07T17:48:57.502Z,4.67
2023-02-07T17:51:28.984Z,2.33
2023-02-07T17:53:58.036Z,3.08
2023-02-07T17:56:31.521Z,4.07
2023-02-07T17:59:02.392Z,3.13
2023-02-07T18:01:31.627Z,2.92
2023-02-07T18:04:00.835Z,3.30
2023-02-07T18:06:32.038Z,3.83
2023-02-07T18:09:00.647Z,3.70
2023-02-07T18:11:30.563Z,3.30
2023-02-07T18:13:59.237Z,3.97
2023-02-07T18:16:28.453Z,4.68
2023-02-07T18:18:58.240Z,2.60
2023-02-07T18:21:27.833Z,6.72
2023-02-07T18:23:58.386Z,4.00
2023-02-07T18:26:27.029Z,3.90
2023-02-07T18:28:55.685Z,5.13
2023-02-07T18:31:25.660Z,3.58
2023-02-07T18:33:55.237Z,2.90
2023-02-07T18:36:26.828Z,4.07
2023-02-07T18:38:55.485Z,3.17
2023-02-07T18:41:26.589Z,2.50
2023-02-07T18:43:55.215Z,4.80
2023-02-07T18:46:23.920Z,3.60
2023-02-07T18:48:55.913Z,3.03
2023-02-07T18:51:24.831Z,3.33
2023-02-07T18:53:55.508Z,4.07
2023-02-07T18:56:27.461Z,2.93
2023-02-07T18:58:57.656Z,3.63
2023-02-07T19:01:28.017Z,2.70
2023-02-07T19:03:58.664Z,2.47
2023-02-07T19:06:29.245Z,2.97
2023-02-07T19:08:58.267Z,3.55
2023-02-07T19:11:28.362Z,2.73
2023-02-07T19:13:56.930Z,4.40
2023-02-07T19:16:25.812Z,2.75
2023-02-07T19:18:54.514Z,3.27
2023-02-07T19:21:27.226Z,4.43
2023-02-07T19:23:56.922Z,4.45
2023-02-07T19:26:27.485Z,3.67
2023-02-07T19:28:56.194Z,3.57
2023-02-07T19:31:29.106Z,3.95
2023-02-07T19:33:58.885Z,3.78
2023-02-07T19:36:28.588Z,5.20
2023-02-07T19:38:57.192Z,3.27
2023-02-07T19:41:28.966Z,5.00
2023-02-07T19:43:57.632Z,3.20
2023-02-07T19:46:27.025Z,2.80
2023-02-07T19:48:55.913Z,2.50
2023-02-07T19:51:27.380Z,3.30
2023-02-07T19:53:56.945Z,4.47
2023-02-07T19:56:27.778Z,4.32
2023-02-07T19:58:57.875Z,3.13
2023-02-07T20:01:27.746Z,3.75
2023-02-07T20:03:58.375Z,3.42
2023-02-07T20:06:29.569Z,4.13
2023-02-07T20:08:58.488Z,5.33
2023-02-07T20:11:27.920Z,2.80
2023-02-07T20:14:02.945Z,5.25
2023-02-07T20:16:34.786Z,4.57
2023-02-07T20:19:05.917Z,5.82
2023-02-07T20:21:35.765Z,4.50
2023-02-07T20:24:05.159Z,3.97
2023-02-07T20:26:36.602Z,3.20
2023-02-07T20:29:11.974Z,3.67
2023-02-07T20:31:41.058Z,5.05
2023-02-07T20:34:10.266Z,4.93
2023-02-07T20:36:41.458Z,4.90
2023-02-07T20:39:14.134Z,3.47
2023-02-07T20:41:46.251Z,5.22
2023-02-07T20:44:18.209Z,7.60
2023-02-07T20:46:49.034Z,6.05
2023-02-07T20:49:20.792Z,3.88
2023-02-07T20:51:51.787Z,3.88
2023-02-07T20:54:23.176Z,3.63
2023-02-07T20:56:52.672Z,5.97
2023-02-07T20:59:24.700Z,4.15
2023-02-07T21:01:53.585Z,4.17
2023-02-07T21:04:22.985Z,3.83
2023-02-07T21:06:52.845Z,4.05
2023-02-07T21:09:21.902Z,3.83
2023-02-07T21:11:52.205Z,5.20
2023-02-07T21:14:26.024Z,7.30
2023-02-07T21:16:55.262Z,3.75
2023-02-07T21:19:24.477Z,3.55
2023-02-07T21:21:55.107Z,2.78
2023-02-07T21:24:24.524Z,4.28
2023-02-07T21:26:55.307Z,5.10
2023-02-07T21:29:27.043Z,3.72
2023-02-07T21:31:55.797Z,3.63
2023-02-07T21:34:25.608Z,3.78
2023-02-07T21:36:54.373Z,5.37
2023-02-07T21:39:24.435Z,4.17
2023-02-07T21:41:53.279Z,5.03
2023-02-07T21:44:22.354Z,3.23
2023-02-07T21:46:52.424Z,5.17
2023-02-07T21:49:22.026Z,4.57
2023-02-07T21:51:53.855Z,6.63
2023-02-07T21:54:22.789Z,3.67
2023-02-07T21:56:52.082Z,2.90
2023-02-07T21:59:22.540Z,3.05
2023-02-07T22:01:52.866Z,3.65
2023-02-07T22:04:21.532Z,4.43
2023-02-07T22:06:50.098Z,5.13
2023-02-07T22:09:20.787Z,2.95
2023-02-07T22:11:49.645Z,4.47
2023-02-07T22:14:18.656Z,6.07
2023-02-07T22:16:50.993Z,4.60
2023-02-07T22:19:21.954Z,3.83
2023-02-07T22:21:51.661Z,4.90
2023-02-07T22:24:21.206Z,2.85
2023-02-07T22:26:50.034Z,3.40
2023-02-07T22:29:18.700Z,5.43
2023-02-07T22:31:47.478Z,4.63
2023-02-07T22:34:16.309Z,5.70
2023-02-07T22:36:46.981Z,3.70
2023-02-07T22:39:18.218Z,5.28
2023-02-07T22:41:47.316Z,5.85
2023-02-07T22:44:16.462Z,5.35
2023-02-07T22:46:45.096Z,5.53
2023-02-07T22:49:13.696Z,4.70
2023-02-07T22:51:42.306Z,8.93
2023-02-07T22:54:17.117Z,5.27
2023-02-07T22:56:46.175Z,5.60
2023-02-07T22:59:15.048Z,6.22
2023-02-07T23:01:43.975Z,6.03
2023-02-07T23:04:17.430Z,3.75
2023-02-07T23:06:47.156Z,4.00
2023-02-07T23:09:17.403Z,4.97
2023-02-07T23:11:46.230Z,5.70
2023-02-07T23:14:16.469Z,2.55
2023-02-07T23:16:45.086Z,3.13
2023-02-07T23:19:16.235Z,3.28
2023-02-07T23:21:45.565Z,4.05
2023-02-07T23:24:14.273Z,3.08
2023-02-07T23:26:44.253Z,4.30
2023-02-07T23:29:12.835Z,4.37
2023-02-07T23:31:41.513Z,4.47
2023-02-07T23:34:10.584Z,5.93
2023-02-07T23:36:40.136Z,3.25
2023-02-07T23:39:09.134Z,4.40
2023-02-07T23:41:38.129Z,5.80
2023-02-07T23:44:08.933Z,6.00
2023-02-07T23:46:44.615Z,4.03
2023-02-07T23:49:13.333Z,4.97
2023-02-07T23:51:42.033Z,3.33
2023-02-07T23:54:10.813Z,5.20
2023-02-07T23:56:41.772Z,5.82
2023-02-07T23:59:13.784Z,6.57
